sensor_id;sensor_type;location;lat;lon;timestamp;temperature;humidity
14093;DHT22;7123;49.468;10.992;2023-03-01T00:01:13;1.80;99.90
14093;DHT22;7123;49.468;10.992;2023-03-01T00:03:42;1.80;99.90
14093;DHT22;7123;49.468;10.992;2023-03-01T00:06:09;1.80;99.90
14093;DHT22;7123;49.468;10.992;2023-03-01T00:08:43;1.80;99.90
14093;DHT22;7123;49.468;10.992;2023-03-01T00:11:12;1.80;99.90
14093;DHT22;7123;49.468;10.992;2023-03-01T00:13:40;1.90;99.90
14093;DHT22;7123;49.468;10.992;2023-03-01T00:16:11;1.80;99.90
14093;DHT22;7123;49.468;10.992;2023-03-01T00:18:38;1.80;99.90
14093;DHT22;7123;49.468;10.992;2023-03-01T00:21:05;1.80;99.90
14093;DHT22;7123;49.468;10.992;2023-03-01T00:23:33;1.90;99.90
14093;DHT22;7123;49.468;10.992;2023-03-01T00:26:01;1.90;99.90
14093;DHT22;7123;49.468;10.992;2023-03-01T00:28:27;1.80;99.90
14093;DHT22;7123;49.468;10.992;2023-03-01T00:30:54;1.70;99.90
14093;DHT22;7123;49.468;10.992;2023-03-01T00:33:21;1.60;99.90
14093;DHT22;7123;49.468;10.992;2023-03-01T00:35:47;1.50;99.90
14093;DHT22;7123;49.468;10.992;2023-03-01T00:38:14;1.30;99.90
14093;DHT22;7123;49.468;10.992;2023-03-01T00:40:41;1.20;99.90
14093;DHT22;7123;49.468;10.992;2023-03-01T00:43:08;1.20;99.90
14093;DHT22;7123;49.468;10.992;2023-03-01T00:45:35;1.30;99.90
14093;DHT22;7123;49.468;10.992;2023-03-01T00:48:01;1.40;99.90
14093;DHT22;7123;49.468;10.992;2023-03-01T00:50:28;1.40;99.90
14093;DHT22;7123;49.468;10.992;2023-03-01T00:52:55;1.50;99.90
14093;DHT22;7123;49.468;10.992;2023-03-01T00:55:23;1.60;99.90
14093;DHT22;7123;49.468;10.992;2023-03-01T00:57:50;1.60;99.90
14093;DHT22;7123;49.468;10.992;2023-03-01T01:00:18;1.60;99.90
14093;DHT22;7123;49.468;10.992;2023-03-01T01:02:45;1.70;99.90
14093;DHT22;7123;49.468;10.992;2023-03-01T01:05:12;1.70;99.90
14093;DHT22;7123;49.468;10.992;2023-03-01T01:07:38;1.80;99.90
14093;DHT22;7123;49.468;10.992;2023-03-01T01:10:06;1.70;99.90
14093;DHT22;7123;49.468;10.992;2023-03-01T01:12:33;1.80;99.90
14093;DHT22;7123;49.468;10.992;2023-03-01T01:14:59;1.80;99.90
14093;DHT22;7123;49.468;10.992;2023-03-01T01:17:26;1.80;99.90
14093;DHT22;7123;49.468;10.992;2023-03-01T01:19:53;1.80;99.90
14093;DHT22;7123;49.468;10.992;2023-03-01T01:22:19;1.80;99.90
14093;DHT22;7123;49.468;10.992;2023-03-01T01:24:46;1.70;99.90
14093;DHT22;7123;49.468;10.992;2023-03-01T01:27:13;1.70;99.90
14093;DHT22;7123;49.468;10.992;2023-03-01T01:29:39;1.80;99.90
14093;DHT22;7123;49.468;10.992;2023-03-01T01:32:08;1.80;99.90
14093;DHT22;7123;49.468;10.992;2023-03-01T01:34:37;1.80;99.90
14093;DHT22;7123;49.468;10.992;2023-03-01T01:37:04;1.80;99.90
14093;DHT22;7123;49.468;10.992;2023-03-01T01:39:37;1.80;99.90
14093;DHT22;7123;49.468;10.992;2023-03-01T01:42:03;1.80;99.90
14093;DHT22;7123;49.468;10.992;2023-03-01T01:44:30;1.80;99.90
14093;DHT22;7123;49.468;10.992;2023-03-01T01:47:21;1.80;99.90
14093;DHT22;7123;49.468;10.992;2023-03-01T01:49:53;1.80;99.90
14093;DHT22;7123;49.468;10.992;2023-03-01T01:52:35;1.80;99.90
14093;DHT22;7123;49.468;10.992;2023-03-01T01:55:10;1.80;99.90
14093;DHT22;7123;49.468;10.992;2023-03-01T01:57:40;1.80;99.90
14093;DHT22;7123;49.468;10.992;2023-03-01T02:00:13;1.80;99.90
14093;DHT22;7123;49.468;10.992;2023-03-01T02:02:41;1.80;99.90
14093;DHT22;7123;49.468;10.992;2023-03-01T02:07:58;1.80;99.90
14093;DHT22;7123;49.468;10.992;2023-03-01T02:10:26;1.80;99.90
14093;DHT22;7123;49.468;10.992;2023-03-01T02:12:54;1.80;99.90
14093;DHT22;7123;49.468;10.992;2023-03-01T02:15:23;1.80;99.90
14093;DHT22;7123;49.468;10.992;2023-03-01T02:17:50;1.80;99.90
14093;DHT22;7123;49.468;10.992;2023-03-01T02:23:18;1.80;99.90
14093;DHT22;7123;49.468;10.992;2023-03-01T02:28:41;1.80;99.90
14093;DHT22;7123;49.468;10.992;2023-03-01T02:31:10;1.80;99.90
14093;DHT22;7123;49.468;10.992;2023-03-01T02:33:56;1.70;99.90
14093;DHT22;7123;49.468;10.992;2023-03-01T02:36:34;1.70;99.90
14093;DHT22;7123;49.468;10.992;2023-03-01T02:39:04;1.70;99.90
14093;DHT22;7123;49.468;10.992;2023-03-01T02:41:35;1.70;99.90
14093;DHT22;7123;49.468;10.992;2023-03-01T02:44:04;1.70;99.90
14093;DHT22;7123;49.468;10.992;2023-03-01T02:46:31;1.70;99.90
14093;DHT22;7123;49.468;10.992;2023-03-01T02:48:59;1.70;99.90
14093;DHT22;7123;49.468;10.992;2023-03-01T02:51:51;1.60;99.90
14093;DHT22;7123;49.468;10.992;2023-03-01T02:54:29;1.60;99.90
14093;DHT22;7123;49.468;10.992;2023-03-01T02:56:59;1.70;99.90
14093;DHT22;7123;49.468;10.992;2023-03-01T02:59:31;1.60;99.90
14093;DHT22;7123;49.468;10.992;2023-03-01T03:02:06;1.60;99.90
14093;DHT22;7123;49.468;10.992;2023-03-01T03:04:33;1.60;99.90
14093;DHT22;7123;49.468;10.992;2023-03-01T03:07:00;1.60;99.90
14093;DHT22;7123;49.468;10.992;2023-03-01T03:09:27;1.60;99.90
14093;DHT22;7123;49.468;10.992;2023-03-01T03:11:54;1.60;99.90
14093;DHT22;7123;49.468;10.992;2023-03-01T03:14:21;1.60;99.90
14093;DHT22;7123;49.468;10.992;2023-03-01T03:16:49;1.60;99.90
14093;DHT22;7123;49.468;10.992;2023-03-01T03:19:18;1.60;99.90
14093;DHT22;7123;49.468;10.992;2023-03-01T03:21:45;1.60;99.90
14093;DHT22;7123;49.468;10.992;2023-03-01T03:24:11;1.50;99.90
14093;DHT22;7123;49.468;10.992;2023-03-01T03:26:38;1.50;99.90
14093;DHT22;7123;49.468;10.992;2023-03-01T03:29:05;1.40;99.90
14093;DHT22;7123;49.468;10.992;2023-03-01T03:31:31;1.40;99.90
14093;DHT22;7123;49.468;10.992;2023-03-01T03:33:58;1.40;99.90
14093;DHT22;7123;49.468;10.992;2023-03-01T03:36:25;1.40;99.90
14093;DHT22;7123;49.468;10.992;2023-03-01T03:38:52;1.40;99.90
14093;DHT22;7123;49.468;10.992;2023-03-01T03:41:19;1.30;99.90
14093;DHT22;7123;49.468;10.992;2023-03-01T03:43:45;1.20;99.90
14093;DHT22;7123;49.468;10.992;2023-03-01T03:46:12;1.20;99.90
14093;DHT22;7123;49.468;10.992;2023-03-01T03:48:43;1.10;99.90
14093;DHT22;7123;49.468;10.992;2023-03-01T03:51:12;1.00;99.90
14093;DHT22;7123;49.468;10.992;2023-03-01T03:53:40;1.00;99.90
14093;DHT22;7123;49.468;10.992;2023-03-01T03:56:07;1.10;99.90
14093;DHT22;7123;49.468;10.992;2023-03-01T03:58:34;1.10;99.90
14093;DHT22;7123;49.468;10.992;2023-03-01T04:01:00;1.10;99.90
14093;DHT22;7123;49.468;10.992;2023-03-01T04:03:29;1.10;99.90
14093;DHT22;7123;49.468;10.992;2023-03-01T04:06:00;1.10;99.90
14093;DHT22;7123;49.468;10.992;2023-03-01T04:08:27;1.10;99.90
14093;DHT22;7123;49.468;10.992;2023-03-01T04:11:00;1.10;99.90
14093;DHT22;7123;49.468;10.992;2023-03-01T04:13:47;1.10;99.90
14093;DHT22;7123;49.468;10.992;2023-03-01T04:16:14;1.10;99.90
14093;DHT22;7123;49.468;10.992;2023-03-01T04:18:41;1.00;99.90
14093;DHT22;7123;49.468;10.992;2023-03-01T04:21:08;1.00;99.90
14093;DHT22;7123;49.468;10.992;2023-03-01T04:23:35;1.00;99.90
14093;DHT22;7123;49.468;10.992;2023-03-01T04:26:02;1.00;99.90
14093;DHT22;7123;49.468;10.992;2023-03-01T04:28:35;1.00;99.90
14093;DHT22;7123;49.468;10.992;2023-03-01T04:31:05;1.00;99.90
14093;DHT22;7123;49.468;10.992;2023-03-01T04:33:43;1.00;99.90
14093;DHT22;7123;49.468;10.992;2023-03-01T04:36:11;1.00;99.90
14093;DHT22;7123;49.468;10.992;2023-03-01T04:38:39;0.90;99.90
14093;DHT22;7123;49.468;10.992;2023-03-01T04:41:10;0.90;99.90
14093;DHT22;7123;49.468;10.992;2023-03-01T04:43:37;0.90;99.90
14093;DHT22;7123;49.468;10.992;2023-03-01T04:46:06;0.90;99.90
14093;DHT22;7123;49.468;10.992;2023-03-01T04:48:36;0.90;99.90
14093;DHT22;7123;49.468;10.992;2023-03-01T04:51:04;0.80;99.90
14093;DHT22;7123;49.468;10.992;2023-03-01T04:53:32;0.80;99.90
14093;DHT22;7123;49.468;10.992;2023-03-01T04:55:59;0.80;99.90
14093;DHT22;7123;49.468;10.992;2023-03-01T04:58:26;0.80;99.90
14093;DHT22;7123;49.468;10.992;2023-03-01T05:00:54;0.80;99.90
14093;DHT22;7123;49.468;10.992;2023-03-01T05:03:21;0.80;99.90
14093;DHT22;7123;49.468;10.992;2023-03-01T05:05:50;0.80;99.90
14093;DHT22;7123;49.468;10.992;2023-03-01T05:08:17;0.80;99.90
14093;DHT22;7123;49.468;10.992;2023-03-01T05:10:53;0.80;99.90
14093;DHT22;7123;49.468;10.992;2023-03-01T05:13:21;0.90;99.90
14093;DHT22;7123;49.468;10.992;2023-03-01T05:15:58;0.90;99.90
14093;DHT22;7123;49.468;10.992;2023-03-01T05:18:26;0.90;99.90
14093;DHT22;7123;49.468;10.992;2023-03-01T05:21:04;1.00;99.90
14093;DHT22;7123;49.468;10.992;2023-03-01T05:23:32;1.00;99.90
14093;DHT22;7123;49.468;10.992;2023-03-01T05:26:00;0.90;99.90
14093;DHT22;7123;49.468;10.992;2023-03-01T05:28:27;1.00;99.90
14093;DHT22;7123;49.468;10.992;2023-03-01T05:30:57;0.90;99.90
14093;DHT22;7123;49.468;10.992;2023-03-01T05:33:25;0.90;99.90
14093;DHT22;7123;49.468;10.992;2023-03-01T05:35:52;0.90;99.90
14093;DHT22;7123;49.468;10.992;2023-03-01T05:38:20;0.90;99.90
14093;DHT22;7123;49.468;10.992;2023-03-01T05:40:48;0.90;99.90
14093;DHT22;7123;49.468;10.992;2023-03-01T05:43:16;0.80;99.90
14093;DHT22;7123;49.468;10.992;2023-03-01T05:45:43;0.80;99.90
14093;DHT22;7123;49.468;10.992;2023-03-01T05:48:11;0.80;99.90
14093;DHT22;7123;49.468;10.992;2023-03-01T05:50:43;0.80;99.90
14093;DHT22;7123;49.468;10.992;2023-03-01T05:53:20;0.70;99.90
14093;DHT22;7123;49.468;10.992;2023-03-01T05:55:50;0.70;99.90
14093;DHT22;7123;49.468;10.992;2023-03-01T05:58:19;0.70;99.90
14093;DHT22;7123;49.468;10.992;2023-03-01T06:00:47;0.60;99.90
14093;DHT22;7123;49.468;10.992;2023-03-01T06:03:16;0.70;99.90
14093;DHT22;7123;49.468;10.992;2023-03-01T06:05:43;0.60;99.90
14093;DHT22;7123;49.468;10.992;2023-03-01T06:08:11;0.70;99.90
14093;DHT22;7123;49.468;10.992;2023-03-01T06:10:38;0.60;99.90
14093;DHT22;7123;49.468;10.992;2023-03-01T06:13:04;0.70;99.90
14093;DHT22;7123;49.468;10.992;2023-03-01T06:15:31;0.70;99.90
14093;DHT22;7123;49.468;10.992;2023-03-01T06:17:58;0.70;99.90
14093;DHT22;7123;49.468;10.992;2023-03-01T06:20:27;0.70;99.90
14093;DHT22;7123;49.468;10.992;2023-03-01T06:22:54;0.70;99.90
14093;DHT22;7123;49.468;10.992;2023-03-01T06:25:23;0.70;99.90
14093;DHT22;7123;49.468;10.992;2023-03-01T06:27:50;0.70;99.90
14093;DHT22;7123;49.468;10.992;2023-03-01T06:30:20;0.70;99.90
14093;DHT22;7123;49.468;10.992;2023-03-01T06:32:47;0.70;99.90
14093;DHT22;7123;49.468;10.992;2023-03-01T06:35:15;0.70;99.90
14093;DHT22;7123;49.468;10.992;2023-03-01T06:37:45;0.70;99.90
14093;DHT22;7123;49.468;10.992;2023-03-01T06:40:12;0.70;99.90
14093;DHT22;7123;49.468;10.992;2023-03-01T06:42:42;0.70;99.90
14093;DHT22;7123;49.468;10.992;2023-03-01T06:45:09;0.70;99.90
14093;DHT22;7123;49.468;10.992;2023-03-01T06:47:37;0.70;99.90
14093;DHT22;7123;49.468;10.992;2023-03-01T06:50:04;0.80;99.90
14093;DHT22;7123;49.468;10.992;2023-03-01T06:52:31;0.80;99.90
14093;DHT22;7123;49.468;10.992;2023-03-01T06:54:58;0.80;99.90
14093;DHT22;7123;49.468;10.992;2023-03-01T06:57:24;0.80;99.90
14093;DHT22;7123;49.468;10.992;2023-03-01T06:59:51;0.80;99.90
14093;DHT22;7123;49.468;10.992;2023-03-01T07:02:18;0.80;99.90
14093;DHT22;7123;49.468;10.992;2023-03-01T07:04:45;0.80;99.90
14093;DHT22;7123;49.468;10.992;2023-03-01T07:07:12;0.80;99.90
14093;DHT22;7123;49.468;10.992;2023-03-01T07:09:39;0.90;99.90
14093;DHT22;7123;49.468;10.992;2023-03-01T07:12:05;0.90;99.90
14093;DHT22;7123;49.468;10.992;2023-03-01T07:14:32;0.90;99.90
14093;DHT22;7123;49.468;10.992;2023-03-01T07:16:59;0.90;99.90
14093;DHT22;7123;49.468;10.992;2023-03-01T07:19:26;0.90;99.90
14093;DHT22;7123;49.468;10.992;2023-03-01T07:21:52;1.00;99.90
14093;DHT22;7123;49.468;10.992;2023-03-01T07:24:19;1.00;99.90
14093;DHT22;7123;49.468;10.992;2023-03-01T07:26:50;1.10;99.90
14093;DHT22;7123;49.468;10.992;2023-03-01T07:29:18;1.10;99.90
14093;DHT22;7123;49.468;10.992;2023-03-01T07:31:45;1.10;99.90
14093;DHT22;7123;49.468;10.992;2023-03-01T07:34:12;1.20;99.90
14093;DHT22;7123;49.468;10.992;2023-03-01T07:36:38;1.20;99.90
14093;DHT22;7123;49.468;10.992;2023-03-01T07:39:06;1.20;99.90
14093;DHT22;7123;49.468;10.992;2023-03-01T07:41:33;1.20;99.90
14093;DHT22;7123;49.468;10.992;2023-03-01T07:43:59;1.20;99.90
14093;DHT22;7123;49.468;10.992;2023-03-01T07:46:26;1.30;99.90
14093;DHT22;7123;49.468;10.992;2023-03-01T07:48:53;1.30;99.90
14093;DHT22;7123;49.468;10.992;2023-03-01T07:51:20;1.30;99.90
14093;DHT22;7123;49.468;10.992;2023-03-01T07:53:48;1.30;99.90
14093;DHT22;7123;49.468;10.992;2023-03-01T07:56:16;1.40;99.90
14093;DHT22;7123;49.468;10.992;2023-03-01T07:58:44;1.40;99.90
14093;DHT22;7123;49.468;10.992;2023-03-01T08:01:14;1.40;99.90
14093;DHT22;7123;49.468;10.992;2023-03-01T08:03:43;1.40;99.90
14093;DHT22;7123;49.468;10.992;2023-03-01T08:06:14;1.50;99.90
14093;DHT22;7123;49.468;10.992;2023-03-01T08:08:42;1.50;99.90
14093;DHT22;7123;49.468;10.992;2023-03-01T08:11:11;1.60;99.90
14093;DHT22;7123;49.468;10.992;2023-03-01T08:13:38;1.70;99.90
14093;DHT22;7123;49.468;10.992;2023-03-01T08:16:11;1.70;99.90
14093;DHT22;7123;49.468;10.992;2023-03-01T08:18:38;1.70;99.90
14093;DHT22;7123;49.468;10.992;2023-03-01T08:21:07;1.80;99.90
14093;DHT22;7123;49.468;10.992;2023-03-01T08:23:35;1.80;99.90
14093;DHT22;7123;49.468;10.992;2023-03-01T08:26:28;1.80;99.90
14093;DHT22;7123;49.468;10.992;2023-03-01T08:28:55;1.80;99.90
14093;DHT22;7123;49.468;10.992;2023-03-01T08:31:27;1.80;99.90
14093;DHT22;7123;49.468;10.992;2023-03-01T08:33:56;1.90;99.90
14093;DHT22;7123;49.468;10.992;2023-03-01T08:36:31;1.90;99.90
14093;DHT22;7123;49.468;10.992;2023-03-01T08:38:59;1.90;99.90
14093;DHT22;7123;49.468;10.992;2023-03-01T08:41:26;2.00;99.90
14093;DHT22;7123;49.468;10.992;2023-03-01T08:43:53;2.00;99.90
14093;DHT22;7123;49.468;10.992;2023-03-01T08:46:26;2.00;99.90
14093;DHT22;7123;49.468;10.992;2023-03-01T08:48:53;2.10;99.90
14093;DHT22;7123;49.468;10.992;2023-03-01T08:51:21;2.10;99.90
14093;DHT22;7123;49.468;10.992;2023-03-01T08:53:48;2.10;99.90
14093;DHT22;7123;49.468;10.992;2023-03-01T08:56:16;2.10;99.90
14093;DHT22;7123;49.468;10.992;2023-03-01T08:58:46;2.20;99.90
14093;DHT22;7123;49.468;10.992;2023-03-01T09:01:15;2.20;99.90
14093;DHT22;7123;49.468;10.992;2023-03-01T09:03:43;2.30;99.90
14093;DHT22;7123;49.468;10.992;2023-03-01T09:06:10;2.30;99.90
14093;DHT22;7123;49.468;10.992;2023-03-01T09:08:38;2.40;99.90
14093;DHT22;7123;49.468;10.992;2023-03-01T09:11:08;2.40;99.90
14093;DHT22;7123;49.468;10.992;2023-03-01T09:13:35;2.40;99.90
14093;DHT22;7123;49.468;10.992;2023-03-01T09:16:04;2.50;99.90
14093;DHT22;7123;49.468;10.992;2023-03-01T09:18:32;2.50;99.90
14093;DHT22;7123;49.468;10.992;2023-03-01T09:21:29;2.50;99.90
14093;DHT22;7123;49.468;10.992;2023-03-01T09:24:12;2.50;99.90
14093;DHT22;7123;49.468;10.992;2023-03-01T09:26:39;2.60;99.90
14093;DHT22;7123;49.468;10.992;2023-03-01T09:29:06;2.60;99.90
14093;DHT22;7123;49.468;10.992;2023-03-01T09:31:32;2.60;99.90
14093;DHT22;7123;49.468;10.992;2023-03-01T09:33:59;2.70;99.90
14093;DHT22;7123;49.468;10.992;2023-03-01T09:36:26;2.70;99.90
14093;DHT22;7123;49.468;10.992;2023-03-01T09:38:53;2.80;99.90
14093;DHT22;7123;49.468;10.992;2023-03-01T09:41:47;2.80;99.90
14093;DHT22;7123;49.468;10.992;2023-03-01T09:46:59;2.90;99.90
14093;DHT22;7123;49.468;10.992;2023-03-01T09:49:39;2.90;99.90
14093;DHT22;7123;49.468;10.992;2023-03-01T09:55:16;2.90;99.90
14093;DHT22;7123;49.468;10.992;2023-03-01T09:57:53;3.00;99.90
14093;DHT22;7123;49.468;10.992;2023-03-01T10:00:26;3.00;99.90
14093;DHT22;7123;49.468;10.992;2023-03-01T10:05:40;3.00;99.90
14093;DHT22;7123;49.468;10.992;2023-03-01T10:08:40;3.00;99.90
14093;DHT22;7123;49.468;10.992;2023-03-01T10:11:21;3.00;99.90
14093;DHT22;7123;49.468;10.992;2023-03-01T10:16:39;3.00;99.90
14093;DHT22;7123;49.468;10.992;2023-03-01T10:19:22;3.10;99.90
14093;DHT22;7123;49.468;10.992;2023-03-01T10:21:50;3.20;99.90
14093;DHT22;7123;49.468;10.992;2023-03-01T10:24:19;3.20;99.90
14093;DHT22;7123;49.468;10.992;2023-03-01T10:26:56;3.30;99.90
14093;DHT22;7123;49.468;10.992;2023-03-01T10:29:49;3.30;99.90
14093;DHT22;7123;49.468;10.992;2023-03-01T10:32:12;3.40;99.90
14093;DHT22;7123;49.468;10.992;2023-03-01T10:34:39;3.40;99.90
14093;DHT22;7123;49.468;10.992;2023-03-01T10:37:15;3.40;99.90
14093;DHT22;7123;49.468;10.992;2023-03-01T10:40:08;3.50;99.90
14093;DHT22;7123;49.468;10.992;2023-03-01T10:42:39;3.50;99.90
14093;DHT22;7123;49.468;10.992;2023-03-01T10:45:16;3.60;99.90
14093;DHT22;7123;49.468;10.992;2023-03-01T10:47:45;3.60;99.90
14093;DHT22;7123;49.468;10.992;2023-03-01T10:50:22;3.60;99.90
14093;DHT22;7123;49.468;10.992;2023-03-01T10:52:58;3.70;99.90
14093;DHT22;7123;49.468;10.992;2023-03-01T10:55:35;3.70;99.90
14093;DHT22;7123;49.468;10.992;2023-03-01T11:08:45;3.90;99.90
14093;DHT22;7123;49.468;10.992;2023-03-01T11:16:23;4.00;99.90
14093;DHT22;7123;49.468;10.992;2023-03-01T11:19:04;4.00;99.90
14093;DHT22;7123;49.468;10.992;2023-03-01T11:22:02;4.00;99.90
14093;DHT22;7123;49.468;10.992;2023-03-01T11:24:39;4.10;99.90
14093;DHT22;7123;49.468;10.992;2023-03-01T11:27:33;4.10;99.90
14093;DHT22;7123;49.468;10.992;2023-03-01T11:32:36;4.20;99.90
14093;DHT22;7123;49.468;10.992;2023-03-01T11:35:15;4.30;99.90
14093;DHT22;7123;49.468;10.992;2023-03-01T11:40:17;4.40;99.90
14093;DHT22;7123;49.468;10.992;2023-03-01T11:48:57;4.50;99.90
14093;DHT22;7123;49.468;10.992;2023-03-01T11:51:50;4.50;99.90
14093;DHT22;7123;49.468;10.992;2023-03-01T12:08:16;4.60;99.90
14093;DHT22;7123;49.468;10.992;2023-03-01T12:19:39;4.70;99.90
14093;DHT22;7123;49.468;10.992;2023-03-01T12:22:30;4.70;99.90
14093;DHT22;7123;49.468;10.992;2023-03-01T12:25:00;4.80;99.90
14093;DHT22;7123;49.468;10.992;2023-03-01T12:39:33;4.90;99.90
14093;DHT22;7123;49.468;10.992;2023-03-01T12:50:21;5.00;99.90
14093;DHT22;7123;49.468;10.992;2023-03-01T12:52:56;5.10;99.90
14093;DHT22;7123;49.468;10.992;2023-03-01T12:55:41;5.10;99.90
14093;DHT22;7123;49.468;10.992;2023-03-01T13:04:28;5.20;99.90
14093;DHT22;7123;49.468;10.992;2023-03-01T13:12:47;5.30;99.90
14093;DHT22;7123;49.468;10.992;2023-03-01T13:17:54;5.50;99.90
14093;DHT22;7123;49.468;10.992;2023-03-01T13:20:30;5.60;99.90
14093;DHT22;7123;49.468;10.992;2023-03-01T13:26:08;5.70;99.90
14093;DHT22;7123;49.468;10.992;2023-03-01T13:34:01;5.70;99.90
14093;DHT22;7123;49.468;10.992;2023-03-01T13:46:44;5.90;99.90
14093;DHT22;7123;49.468;10.992;2023-03-01T13:49:15;6.00;99.90
14093;DHT22;7123;49.468;10.992;2023-03-01T13:51:46;6.00;99.90
14093;DHT22;7123;49.468;10.992;2023-03-01T13:54:15;6.00;99.90
14093;DHT22;7123;49.468;10.992;2023-03-01T13:56:43;6.00;99.90
14093;DHT22;7123;49.468;10.992;2023-03-01T13:59:20;6.10;99.90
14093;DHT22;7123;49.468;10.992;2023-03-01T14:01:59;6.20;99.90
14093;DHT22;7123;49.468;10.992;2023-03-01T14:04:32;6.20;99.90
14093;DHT22;7123;49.468;10.992;2023-03-01T14:07:21;6.30;99.90
14093;DHT22;7123;49.468;10.992;2023-03-01T14:10:02;6.30;99.90
14093;DHT22;7123;49.468;10.992;2023-03-01T14:12:52;6.30;99.90
14093;DHT22;7123;49.468;10.992;2023-03-01T14:15:39;6.50;99.90
14093;DHT22;7123;49.468;10.992;2023-03-01T14:18:21;6.60;99.90
14093;DHT22;7123;49.468;10.992;2023-03-01T14:20:52;6.60;99.90
14093;DHT22;7123;49.468;10.992;2023-03-01T14:23:21;6.70;99.90
14093;DHT22;7123;49.468;10.992;2023-03-01T14:25:57;6.80;99.90
14093;DHT22;7123;49.468;10.992;2023-03-01T14:28:29;6.90;99.90
14093;DHT22;7123;49.468;10.992;2023-03-01T14:30:58;7.00;99.90
14093;DHT22;7123;49.468;10.992;2023-03-01T14:33:26;7.00;99.90
14093;DHT22;7123;49.468;10.992;2023-03-01T14:36:11;7.20;99.90
14093;DHT22;7123;49.468;10.992;2023-03-01T14:38:42;7.20;99.90
14093;DHT22;7123;49.468;10.992;2023-03-01T14:41:23;7.20;99.90
14093;DHT22;7123;49.468;10.992;2023-03-01T14:43:54;7.20;99.90
14093;DHT22;7123;49.468;10.992;2023-03-01T14:46:36;7.30;99.90
14093;DHT22;7123;49.468;10.992;2023-03-01T14:49:15;7.30;99.90
14093;DHT22;7123;49.468;10.992;2023-03-01T14:52:02;7.30;99.90
14093;DHT22;7123;49.468;10.992;2023-03-01T14:54:43;7.40;99.90
14093;DHT22;7123;49.468;10.992;2023-03-01T14:57:22;7.40;99.90
14093;DHT22;7123;49.468;10.992;2023-03-01T14:59:54;7.50;99.90
14093;DHT22;7123;49.468;10.992;2023-03-01T15:02:24;7.60;99.90
14093;DHT22;7123;49.468;10.992;2023-03-01T15:04:56;7.60;99.90
14093;DHT22;7123;49.468;10.992;2023-03-01T15:07:31;7.60;99.90
14093;DHT22;7123;49.468;10.992;2023-03-01T15:09:59;7.70;99.90
14093;DHT22;7123;49.468;10.992;2023-03-01T15:14:57;7.60;99.90
14093;DHT22;7123;49.468;10.992;2023-03-01T15:17:35;7.60;99.90
14093;DHT22;7123;49.468;10.992;2023-03-01T15:20:05;7.60;99.90
14093;DHT22;7123;49.468;10.992;2023-03-01T15:22:33;7.70;99.90
14093;DHT22;7123;49.468;10.992;2023-03-01T15:25:01;7.80;99.90
14093;DHT22;7123;49.468;10.992;2023-03-01T15:27:27;7.80;99.90
14093;DHT22;7123;49.468;10.992;2023-03-01T15:30:02;7.90;99.90
14093;DHT22;7123;49.468;10.992;2023-03-01T15:32:34;8.00;99.90
14093;DHT22;7123;49.468;10.992;2023-03-01T15:35:42;8.00;99.90
14093;DHT22;7123;49.468;10.992;2023-03-01T15:41:00;8.10;99.90
14093;DHT22;7123;49.468;10.992;2023-03-01T15:43:46;8.20;99.90
14093;DHT22;7123;49.468;10.992;2023-03-01T15:46:19;8.20;99.90
14093;DHT22;7123;49.468;10.992;2023-03-01T15:48:47;8.00;99.90
14093;DHT22;7123;49.468;10.992;2023-03-01T15:51:16;8.00;99.90
14093;DHT22;7123;49.468;10.992;2023-03-01T15:53:51;8.00;99.90
14093;DHT22;7123;49.468;10.992;2023-03-01T15:56:20;8.00;99.90
14093;DHT22;7123;49.468;10.992;2023-03-01T15:58:47;8.00;99.90
14093;DHT22;7123;49.468;10.992;2023-03-01T16:01:15;7.90;99.90
14093;DHT22;7123;49.468;10.992;2023-03-01T16:03:45;7.80;99.90
14093;DHT22;7123;49.468;10.992;2023-03-01T16:06:12;7.90;99.90
14093;DHT22;7123;49.468;10.992;2023-03-01T16:08:40;8.10;99.90
14093;DHT22;7123;49.468;10.992;2023-03-01T16:11:19;7.90;99.90
14093;DHT22;7123;49.468;10.992;2023-03-01T16:13:46;7.90;99.90
14093;DHT22;7123;49.468;10.992;2023-03-01T16:16:15;7.80;99.90
14093;DHT22;7123;49.468;10.992;2023-03-01T16:18:44;7.90;99.90
14093;DHT22;7123;49.468;10.992;2023-03-01T16:21:22;7.90;99.90
14093;DHT22;7123;49.468;10.992;2023-03-01T16:23:50;7.80;99.90
14093;DHT22;7123;49.468;10.992;2023-03-01T16:26:18;7.80;99.90
14093;DHT22;7123;49.468;10.992;2023-03-01T16:28:47;7.80;99.90
14093;DHT22;7123;49.468;10.992;2023-03-01T16:31:18;7.80;99.90
14093;DHT22;7123;49.468;10.992;2023-03-01T16:33:46;7.70;99.90
14093;DHT22;7123;49.468;10.992;2023-03-01T16:36:17;7.70;99.90
14093;DHT22;7123;49.468;10.992;2023-03-01T16:38:44;7.60;99.90
14093;DHT22;7123;49.468;10.992;2023-03-01T16:41:13;7.50;99.90
14093;DHT22;7123;49.468;10.992;2023-03-01T16:43:42;7.40;99.90
14093;DHT22;7123;49.468;10.992;2023-03-01T16:46:19;7.40;99.90
14093;DHT22;7123;49.468;10.992;2023-03-01T16:48:46;7.30;99.90
14093;DHT22;7123;49.468;10.992;2023-03-01T16:51:13;7.30;99.90
14093;DHT22;7123;49.468;10.992;2023-03-01T16:53:40;7.20;99.90
14093;DHT22;7123;49.468;10.992;2023-03-01T16:56:09;7.10;99.90
14093;DHT22;7123;49.468;10.992;2023-03-01T16:58:37;7.10;99.90
14093;DHT22;7123;49.468;10.992;2023-03-01T17:03:38;6.90;99.90
14093;DHT22;7123;49.468;10.992;2023-03-01T17:06:07;6.90;99.90
14093;DHT22;7123;49.468;10.992;2023-03-01T17:08:36;6.90;99.90
14093;DHT22;7123;49.468;10.992;2023-03-01T17:11:10;6.80;99.90
14093;DHT22;7123;49.468;10.992;2023-03-01T17:13:38;6.90;99.90
14093;DHT22;7123;49.468;10.992;2023-03-01T17:16:07;6.70;99.90
14093;DHT22;7123;49.468;10.992;2023-03-01T17:18:34;6.70;99.90
14093;DHT22;7123;49.468;10.992;2023-03-01T17:21:01;6.60;99.90
14093;DHT22;7123;49.468;10.992;2023-03-01T17:23:29;6.60;99.90
14093;DHT22;7123;49.468;10.992;2023-03-01T17:25:56;6.60;99.90
14093;DHT22;7123;49.468;10.992;2023-03-01T17:28:26;6.60;99.90
14093;DHT22;7123;49.468;10.992;2023-03-01T17:30:53;6.50;99.90
14093;DHT22;7123;49.468;10.992;2023-03-01T17:33:20;6.40;99.90
14093;DHT22;7123;49.468;10.992;2023-03-01T17:35:48;6.40;99.90
14093;DHT22;7123;49.468;10.992;2023-03-01T17:38:16;6.30;99.90
14093;DHT22;7123;49.468;10.992;2023-03-01T17:40:44;6.30;99.90
14093;DHT22;7123;49.468;10.992;2023-03-01T17:43:15;6.20;99.90
14093;DHT22;7123;49.468;10.992;2023-03-01T17:45:43;6.20;99.90
14093;DHT22;7123;49.468;10.992;2023-03-01T17:48:14;6.20;99.90
14093;DHT22;7123;49.468;10.992;2023-03-01T17:50:42;6.10;99.90
14093;DHT22;7123;49.468;10.992;2023-03-01T17:53:09;6.10;99.90
14093;DHT22;7123;49.468;10.992;2023-03-01T17:55:37;6.10;99.90
14093;DHT22;7123;49.468;10.992;2023-03-01T17:58:04;6.10;99.90
14093;DHT22;7123;49.468;10.992;2023-03-01T18:00:32;6.00;99.90
14093;DHT22;7123;49.468;10.992;2023-03-01T18:03:00;6.00;99.90
14093;DHT22;7123;49.468;10.992;2023-03-01T18:05:27;6.00;99.90
14093;DHT22;7123;49.468;10.992;2023-03-01T18:07:54;6.00;99.90
14093;DHT22;7123;49.468;10.992;2023-03-01T18:10:20;6.00;99.90
14093;DHT22;7123;49.468;10.992;2023-03-01T18:12:47;6.00;99.90
14093;DHT22;7123;49.468;10.992;2023-03-01T18:15:14;5.90;99.90
14093;DHT22;7123;49.468;10.992;2023-03-01T18:17:43;5.90;99.90